Kezdőlap
METAR-TAF:

METAR-TAF

Repülőterek :

Imperial Municipal Airport

Imperial, Nebraska, Amerikai Egyesült Államok

földrajzi szélesség: 40-31N, földrajzi hosszúság: 101-37W, magasság: 997 m

Jelenlegi meteorológiai megfigyelések

A jelentés 1 órával és 11 perccel ezelõtt készült, 23:53 UTC
Dél-délkeleti szél 18 kt széllökések: 26 kt
Hőmérséklet 12°C
Páratartalom 30%
Légköri nyomás 1013 hPa
Látótávolság: 16.1 km
Derült ég

METAR: KIML 042353Z AUTO 16018G26KT 10SM CLR 12/M05 A2990 RMK AO2 PK WND 16027/2337 SLP137 T01221050 10139 20089 55007

Idő: 19:04 (01:04 UTC)


TAF: hiányzik

Meteorológiai megfigyelések és előrejelzések több, mint 4000 repülőtéren (METAR és TAF jelentéseket).

A térképen piros és sárga pontok jelzik az elérhető meteorológiai állomásokat.

Mozgassa az egeret a pont fölött, hogy megjelenjen az állomás neve.

Azután kattintson az időjárási megfigyelések és előrejelzések megtekintéséhez.

A térkép megváltoztatása: kattintson a fekete keresztel jelölt zöld gombra ráközelítéshez, a vonallal jelölt zöld gombra távolításhoz, vagy a zöld nyilakra a szomszédos térképek eléréséhez.


METAR-TAF: